sensor_id;sensor_type;location;lat;lon;timestamp;temperature;humidity
2459;DHT22;1241;50.920;6.936;2023-06-26T00:00:01;23.80;99.90
2459;DHT22;1241;50.920;6.936;2023-06-26T00:02:31;23.70;99.90
2459;DHT22;1241;50.920;6.936;2023-06-26T00:04:58;23.60;99.90
2459;DHT22;1241;50.920;6.936;2023-06-26T00:07:23;23.60;99.90
2459;DHT22;1241;50.920;6.936;2023-06-26T00:09:49;23.50;99.90
2459;DHT22;1241;50.920;6.936;2023-06-26T00:12:15;23.40;99.90
2459;DHT22;1241;50.920;6.936;2023-06-26T00:14:40;23.40;99.90
2459;DHT22;1241;50.920;6.936;2023-06-26T00:17:06;23.30;99.90
2459;DHT22;1241;50.920;6.936;2023-06-26T00:19:31;23.30;99.90
2459;DHT22;1241;50.920;6.936;2023-06-26T00:21:58;23.40;99.90
2459;DHT22;1241;50.920;6.936;2023-06-26T00:24:24;23.30;99.90
2459;DHT22;1241;50.920;6.936;2023-06-26T00:26:49;23.20;99.90
2459;DHT22;1241;50.920;6.936;2023-06-26T00:29:15;23.20;99.90
2459;DHT22;1241;50.920;6.936;2023-06-26T00:31:41;23.20;99.90
2459;DHT22;1241;50.920;6.936;2023-06-26T00:34:07;23.30;99.90
2459;DHT22;1241;50.920;6.936;2023-06-26T00:36:32;23.20;99.90
2459;DHT22;1241;50.920;6.936;2023-06-26T00:38:58;23.10;99.90
2459;DHT22;1241;50.920;6.936;2023-06-26T00:41:24;23.00;99.90
2459;DHT22;1241;50.920;6.936;2023-06-26T00:43:50;23.00;99.90
2459;DHT22;1241;50.920;6.936;2023-06-26T00:46:16;22.90;99.90
2459;DHT22;1241;50.920;6.936;2023-06-26T00:48:42;22.90;99.90
2459;DHT22;1241;50.920;6.936;2023-06-26T00:51:08;22.80;99.90
2459;DHT22;1241;50.920;6.936;2023-06-26T00:53:34;22.80;99.90
2459;DHT22;1241;50.920;6.936;2023-06-26T00:56:00;22.70;99.90
2459;DHT22;1241;50.920;6.936;2023-06-26T00:58:28;22.60;99.90
2459;DHT22;1241;50.920;6.936;2023-06-26T01:00:56;22.60;99.90
2459;DHT22;1241;50.920;6.936;2023-06-26T01:03:22;22.50;99.90
2459;DHT22;1241;50.920;6.936;2023-06-26T01:05:48;22.50;99.90
2459;DHT22;1241;50.920;6.936;2023-06-26T01:08:17;22.50;99.90
2459;DHT22;1241;50.920;6.936;2023-06-26T01:10:44;22.50;99.90
2459;DHT22;1241;50.920;6.936;2023-06-26T01:13:10;22.40;99.90
2459;DHT22;1241;50.920;6.936;2023-06-26T01:15:36;22.40;99.90
2459;DHT22;1241;50.920;6.936;2023-06-26T01:18:02;22.40;99.90
2459;DHT22;1241;50.920;6.936;2023-06-26T01:20:32;22.40;99.90
2459;DHT22;1241;50.920;6.936;2023-06-26T01:23:05;22.40;99.90
2459;DHT22;1241;50.920;6.936;2023-06-26T01:25:35;22.30;99.90
2459;DHT22;1241;50.920;6.936;2023-06-26T01:28:04;22.40;99.90
2459;DHT22;1241;50.920;6.936;2023-06-26T01:30:31;22.30;99.90
2459;DHT22;1241;50.920;6.936;2023-06-26T01:32:57;22.30;99.90
2459;DHT22;1241;50.920;6.936;2023-06-26T01:35:23;22.20;99.90
2459;DHT22;1241;50.920;6.936;2023-06-26T01:37:49;22.20;99.90
2459;DHT22;1241;50.920;6.936;2023-06-26T01:40:14;22.20;99.90
2459;DHT22;1241;50.920;6.936;2023-06-26T01:42:40;22.20;99.90
2459;DHT22;1241;50.920;6.936;2023-06-26T01:45:11;22.10;99.90
2459;DHT22;1241;50.920;6.936;2023-06-26T01:47:38;22.10;99.90
2459;DHT22;1241;50.920;6.936;2023-06-26T01:50:06;22.00;99.90
2459;DHT22;1241;50.920;6.936;2023-06-26T01:52:40;21.90;99.90
2459;DHT22;1241;50.920;6.936;2023-06-26T01:57:38;21.90;99.90
2459;DHT22;1241;50.920;6.936;2023-06-26T02:00:04;21.90;99.90
2459;DHT22;1241;50.920;6.936;2023-06-26T02:02:40;21.90;99.90
2459;DHT22;1241;50.920;6.936;2023-06-26T02:05:07;21.80;99.90
2459;DHT22;1241;50.920;6.936;2023-06-26T02:07:33;21.80;99.90
2459;DHT22;1241;50.920;6.936;2023-06-26T02:09:58;21.70;99.90
2459;DHT22;1241;50.920;6.936;2023-06-26T02:12:24;21.70;99.90
2459;DHT22;1241;50.920;6.936;2023-06-26T02:14:50;21.70;99.90
2459;DHT22;1241;50.920;6.936;2023-06-26T02:17:16;21.70;99.90
2459;DHT22;1241;50.920;6.936;2023-06-26T02:19:42;21.70;99.90
2459;DHT22;1241;50.920;6.936;2023-06-26T02:22:15;21.70;99.90
2459;DHT22;1241;50.920;6.936;2023-06-26T02:24:42;21.70;99.90
2459;DHT22;1241;50.920;6.936;2023-06-26T02:27:08;21.70;99.90
2459;DHT22;1241;50.920;6.936;2023-06-26T02:29:35;21.70;99.90
2459;DHT22;1241;50.920;6.936;2023-06-26T02:32:01;21.60;99.90
2459;DHT22;1241;50.920;6.936;2023-06-26T02:34:27;21.60;99.90
2459;DHT22;1241;50.920;6.936;2023-06-26T02:36:53;21.50;99.90
2459;DHT22;1241;50.920;6.936;2023-06-26T02:39:22;21.50;99.90
2459;DHT22;1241;50.920;6.936;2023-06-26T02:41:48;21.50;99.90
2459;DHT22;1241;50.920;6.936;2023-06-26T02:44:14;21.50;99.90
2459;DHT22;1241;50.920;6.936;2023-06-26T02:46:40;21.40;99.90
2459;DHT22;1241;50.920;6.936;2023-06-26T02:49:07;21.40;99.90
2459;DHT22;1241;50.920;6.936;2023-06-26T02:51:33;21.30;99.90
2459;DHT22;1241;50.920;6.936;2023-06-26T02:54:02;21.40;99.90
2459;DHT22;1241;50.920;6.936;2023-06-26T02:56:27;21.40;99.90
2459;DHT22;1241;50.920;6.936;2023-06-26T02:58:58;21.30;99.90
2459;DHT22;1241;50.920;6.936;2023-06-26T03:01:25;21.30;99.90
2459;DHT22;1241;50.920;6.936;2023-06-26T03:03:50;21.40;99.90
2459;DHT22;1241;50.920;6.936;2023-06-26T03:06:17;21.50;99.90
2459;DHT22;1241;50.920;6.936;2023-06-26T03:08:44;21.50;99.90
2459;DHT22;1241;50.920;6.936;2023-06-26T03:11:11;21.60;99.90
2459;DHT22;1241;50.920;6.936;2023-06-26T03:13:38;21.60;99.90
2459;DHT22;1241;50.920;6.936;2023-06-26T03:16:03;21.60;99.90
2459;DHT22;1241;50.920;6.936;2023-06-26T03:18:29;21.70;99.90
2459;DHT22;1241;50.920;6.936;2023-06-26T03:20:55;21.70;99.90
2459;DHT22;1241;50.920;6.936;2023-06-26T03:23:22;21.70;99.90
2459;DHT22;1241;50.920;6.936;2023-06-26T03:25:48;21.80;99.90
2459;DHT22;1241;50.920;6.936;2023-06-26T03:28:43;22.00;99.90
2459;DHT22;1241;50.920;6.936;2023-06-26T03:31:09;22.20;99.90
2459;DHT22;1241;50.920;6.936;2023-06-26T03:33:35;22.30;99.90
2459;DHT22;1241;50.920;6.936;2023-06-26T03:36:01;22.40;99.90
2459;DHT22;1241;50.920;6.936;2023-06-26T03:38:26;22.50;99.90
2459;DHT22;1241;50.920;6.936;2023-06-26T03:40:54;22.60;99.90
2459;DHT22;1241;50.920;6.936;2023-06-26T03:43:21;22.60;99.90
2459;DHT22;1241;50.920;6.936;2023-06-26T03:46:04;22.70;99.90
2459;DHT22;1241;50.920;6.936;2023-06-26T03:48:30;22.80;99.90
2459;DHT22;1241;50.920;6.936;2023-06-26T03:50:55;22.80;99.90
2459;DHT22;1241;50.920;6.936;2023-06-26T03:53:21;22.90;99.90
2459;DHT22;1241;50.920;6.936;2023-06-26T03:55:47;22.90;99.90
2459;DHT22;1241;50.920;6.936;2023-06-26T03:58:12;22.90;99.90
2459;DHT22;1241;50.920;6.936;2023-06-26T04:00:38;22.90;99.90
2459;DHT22;1241;50.920;6.936;2023-06-26T04:03:03;22.90;99.90
2459;DHT22;1241;50.920;6.936;2023-06-26T04:05:30;23.00;99.90
2459;DHT22;1241;50.920;6.936;2023-06-26T04:07:55;23.00;99.90
2459;DHT22;1241;50.920;6.936;2023-06-26T04:10:21;23.10;99.90
2459;DHT22;1241;50.920;6.936;2023-06-26T04:12:47;23.30;99.90
2459;DHT22;1241;50.920;6.936;2023-06-26T04:15:13;23.50;99.90
2459;DHT22;1241;50.920;6.936;2023-06-26T04:17:39;23.80;99.90
2459;DHT22;1241;50.920;6.936;2023-06-26T04:20:04;24.10;99.90
2459;DHT22;1241;50.920;6.936;2023-06-26T04:22:33;24.10;99.90
2459;DHT22;1241;50.920;6.936;2023-06-26T04:25:02;24.20;99.90
2459;DHT22;1241;50.920;6.936;2023-06-26T04:27:28;24.30;99.90
2459;DHT22;1241;50.920;6.936;2023-06-26T04:29:54;24.30;99.90
2459;DHT22;1241;50.920;6.936;2023-06-26T04:32:19;24.30;99.90
2459;DHT22;1241;50.920;6.936;2023-06-26T04:34:45;24.40;99.90
2459;DHT22;1241;50.920;6.936;2023-06-26T04:37:10;24.50;99.90
2459;DHT22;1241;50.920;6.936;2023-06-26T04:39:36;24.50;99.90
2459;DHT22;1241;50.920;6.936;2023-06-26T04:42:02;24.60;99.90
2459;DHT22;1241;50.920;6.936;2023-06-26T04:44:28;24.90;99.90
2459;DHT22;1241;50.920;6.936;2023-06-26T04:46:54;25.20;99.90
2459;DHT22;1241;50.920;6.936;2023-06-26T04:49:19;25.30;99.90
2459;DHT22;1241;50.920;6.936;2023-06-26T04:51:45;25.40;99.90
2459;DHT22;1241;50.920;6.936;2023-06-26T04:54:11;25.40;99.90
2459;DHT22;1241;50.920;6.936;2023-06-26T04:56:36;25.40;99.90
2459;DHT22;1241;50.920;6.936;2023-06-26T04:59:02;25.50;99.90
2459;DHT22;1241;50.920;6.936;2023-06-26T05:01:28;25.70;99.90
2459;DHT22;1241;50.920;6.936;2023-06-26T05:03:58;25.70;99.90
2459;DHT22;1241;50.920;6.936;2023-06-26T05:06:23;25.50;99.90
2459;DHT22;1241;50.920;6.936;2023-06-26T05:08:49;25.40;99.90
2459;DHT22;1241;50.920;6.936;2023-06-26T05:11:15;25.40;99.90
2459;DHT22;1241;50.920;6.936;2023-06-26T05:13:40;25.50;99.90
2459;DHT22;1241;50.920;6.936;2023-06-26T05:16:06;25.50;99.90
2459;DHT22;1241;50.920;6.936;2023-06-26T05:18:34;25.60;99.90
2459;DHT22;1241;50.920;6.936;2023-06-26T05:21:00;25.40;99.90
2459;DHT22;1241;50.920;6.936;2023-06-26T05:23:25;25.40;99.90
2459;DHT22;1241;50.920;6.936;2023-06-26T05:25:52;25.40;99.90
2459;DHT22;1241;50.920;6.936;2023-06-26T05:28:18;25.30;99.90
2459;DHT22;1241;50.920;6.936;2023-06-26T05:30:43;25.00;99.90
2459;DHT22;1241;50.920;6.936;2023-06-26T05:33:10;24.70;99.90
2459;DHT22;1241;50.920;6.936;2023-06-26T05:35:36;24.50;99.90
2459;DHT22;1241;50.920;6.936;2023-06-26T05:38:02;24.60;99.90
2459;DHT22;1241;50.920;6.936;2023-06-26T05:40:28;24.80;99.90
2459;DHT22;1241;50.920;6.936;2023-06-26T05:42:53;24.90;99.90
2459;DHT22;1241;50.920;6.936;2023-06-26T05:45:19;25.40;99.90
2459;DHT22;1241;50.920;6.936;2023-06-26T05:47:44;25.70;99.90
2459;DHT22;1241;50.920;6.936;2023-06-26T05:50:11;26.10;99.90
2459;DHT22;1241;50.920;6.936;2023-06-26T05:52:37;26.40;99.90
2459;DHT22;1241;50.920;6.936;2023-06-26T05:55:04;26.30;99.90
2459;DHT22;1241;50.920;6.936;2023-06-26T05:57:30;26.20;99.90
2459;DHT22;1241;50.920;6.936;2023-06-26T05:59:56;25.80;99.90
2459;DHT22;1241;50.920;6.936;2023-06-26T06:02:21;25.20;99.90
2459;DHT22;1241;50.920;6.936;2023-06-26T06:04:47;24.90;99.90
2459;DHT22;1241;50.920;6.936;2023-06-26T06:07:12;24.80;99.90
2459;DHT22;1241;50.920;6.936;2023-06-26T06:09:38;25.00;99.90
2459;DHT22;1241;50.920;6.936;2023-06-26T06:12:04;25.50;99.90
2459;DHT22;1241;50.920;6.936;2023-06-26T06:14:31;25.90;99.90
2459;DHT22;1241;50.920;6.936;2023-06-26T06:16:57;25.60;99.90
2459;DHT22;1241;50.920;6.936;2023-06-26T06:19:22;25.50;99.90
2459;DHT22;1241;50.920;6.936;2023-06-26T06:21:48;25.40;99.90
2459;DHT22;1241;50.920;6.936;2023-06-26T06:24:14;25.60;99.90
2459;DHT22;1241;50.920;6.936;2023-06-26T06:26:39;26.00;99.90
2459;DHT22;1241;50.920;6.936;2023-06-26T06:29:05;26.20;99.90
2459;DHT22;1241;50.920;6.936;2023-06-26T06:31:31;26.30;99.90
2459;DHT22;1241;50.920;6.936;2023-06-26T06:33:57;26.10;99.90
2459;DHT22;1241;50.920;6.936;2023-06-26T06:36:22;25.80;99.90
2459;DHT22;1241;50.920;6.936;2023-06-26T06:38:48;25.40;99.90
2459;DHT22;1241;50.920;6.936;2023-06-26T06:41:13;24.90;99.90
2459;DHT22;1241;50.920;6.936;2023-06-26T06:43:39;24.70;99.90
2459;DHT22;1241;50.920;6.936;2023-06-26T06:46:05;24.70;99.90
2459;DHT22;1241;50.920;6.936;2023-06-26T06:48:31;24.60;99.90
2459;DHT22;1241;50.920;6.936;2023-06-26T06:50:57;24.50;99.90
2459;DHT22;1241;50.920;6.936;2023-06-26T06:53:22;24.40;99.90
2459;DHT22;1241;50.920;6.936;2023-06-26T06:55:51;24.30;99.90
2459;DHT22;1241;50.920;6.936;2023-06-26T06:58:16;24.20;99.90
2459;DHT22;1241;50.920;6.936;2023-06-26T07:00:44;24.00;99.90
2459;DHT22;1241;50.920;6.936;2023-06-26T07:03:10;24.10;99.90
2459;DHT22;1241;50.920;6.936;2023-06-26T07:05:36;24.40;99.90
2459;DHT22;1241;50.920;6.936;2023-06-26T07:08:02;24.90;99.90
2459;DHT22;1241;50.920;6.936;2023-06-26T07:10:28;25.60;99.90
2459;DHT22;1241;50.920;6.936;2023-06-26T07:12:54;26.10;99.90
2459;DHT22;1241;50.920;6.936;2023-06-26T07:15:19;26.50;99.90
2459;DHT22;1241;50.920;6.936;2023-06-26T07:17:45;26.80;99.90
2459;DHT22;1241;50.920;6.936;2023-06-26T07:20:10;27.00;99.90
2459;DHT22;1241;50.920;6.936;2023-06-26T07:22:40;27.40;99.90
2459;DHT22;1241;50.920;6.936;2023-06-26T07:25:06;27.50;99.90
2459;DHT22;1241;50.920;6.936;2023-06-26T07:27:37;27.60;99.90
2459;DHT22;1241;50.920;6.936;2023-06-26T07:30:03;27.50;99.90
2459;DHT22;1241;50.920;6.936;2023-06-26T07:32:29;27.30;99.90
2459;DHT22;1241;50.920;6.936;2023-06-26T07:34:55;27.30;99.90
2459;DHT22;1241;50.920;6.936;2023-06-26T07:37:20;26.90;99.90
2459;DHT22;1241;50.920;6.936;2023-06-26T07:39:47;26.20;99.90
2459;DHT22;1241;50.920;6.936;2023-06-26T07:42:12;26.10;99.90
2459;DHT22;1241;50.920;6.936;2023-06-26T07:44:38;25.90;99.90
2459;DHT22;1241;50.920;6.936;2023-06-26T07:47:03;25.70;99.90
2459;DHT22;1241;50.920;6.936;2023-06-26T07:49:29;26.00;99.90
2459;DHT22;1241;50.920;6.936;2023-06-26T07:51:55;26.50;99.90
2459;DHT22;1241;50.920;6.936;2023-06-26T07:54:20;26.90;99.90
2459;DHT22;1241;50.920;6.936;2023-06-26T07:56:53;27.00;99.90
2459;DHT22;1241;50.920;6.936;2023-06-26T07:59:20;27.00;99.90
2459;DHT22;1241;50.920;6.936;2023-06-26T08:01:47;27.00;99.90
2459;DHT22;1241;50.920;6.936;2023-06-26T08:04:13;27.30;99.90
2459;DHT22;1241;50.920;6.936;2023-06-26T08:06:38;27.60;99.90
2459;DHT22;1241;50.920;6.936;2023-06-26T08:09:08;27.70;99.90
2459;DHT22;1241;50.920;6.936;2023-06-26T08:11:34;27.70;99.90
2459;DHT22;1241;50.920;6.936;2023-06-26T08:13:59;27.50;99.90
2459;DHT22;1241;50.920;6.936;2023-06-26T08:16:25;27.30;99.90
2459;DHT22;1241;50.920;6.936;2023-06-26T08:18:51;27.10;99.90
2459;DHT22;1241;50.920;6.936;2023-06-26T08:21:16;26.80;99.90
2459;DHT22;1241;50.920;6.936;2023-06-26T08:23:42;26.60;99.90
2459;DHT22;1241;50.920;6.936;2023-06-26T08:26:08;26.50;99.90
2459;DHT22;1241;50.920;6.936;2023-06-26T08:28:33;26.30;99.90
2459;DHT22;1241;50.920;6.936;2023-06-26T08:30:59;26.40;99.90
2459;DHT22;1241;50.920;6.936;2023-06-26T08:33:25;26.50;99.90
2459;DHT22;1241;50.920;6.936;2023-06-26T08:35:50;26.50;99.90
2459;DHT22;1241;50.920;6.936;2023-06-26T08:38:16;26.30;99.90
2459;DHT22;1241;50.920;6.936;2023-06-26T08:40:42;26.10;99.90
2459;DHT22;1241;50.920;6.936;2023-06-26T08:43:07;25.90;99.90
2459;DHT22;1241;50.920;6.936;2023-06-26T08:45:33;25.70;99.90
2459;DHT22;1241;50.920;6.936;2023-06-26T08:47:59;25.80;99.90
2459;DHT22;1241;50.920;6.936;2023-06-26T08:50:27;25.80;99.90
2459;DHT22;1241;50.920;6.936;2023-06-26T08:52:54;25.80;99.90
2459;DHT22;1241;50.920;6.936;2023-06-26T08:55:22;25.80;99.90
2459;DHT22;1241;50.920;6.936;2023-06-26T08:57:50;26.00;99.90
2459;DHT22;1241;50.920;6.936;2023-06-26T09:00:16;26.20;99.90
2459;DHT22;1241;50.920;6.936;2023-06-26T09:02:42;26.10;99.90
2459;DHT22;1241;50.920;6.936;2023-06-26T09:05:08;26.00;99.90
2459;DHT22;1241;50.920;6.936;2023-06-26T09:07:34;25.70;99.90
2459;DHT22;1241;50.920;6.936;2023-06-26T09:10:00;25.40;99.90
2459;DHT22;1241;50.920;6.936;2023-06-26T09:12:26;25.30;99.90
2459;DHT22;1241;50.920;6.936;2023-06-26T09:14:52;25.50;99.90
2459;DHT22;1241;50.920;6.936;2023-06-26T09:17:18;25.50;99.90
2459;DHT22;1241;50.920;6.936;2023-06-26T09:19:45;25.50;99.90
2459;DHT22;1241;50.920;6.936;2023-06-26T09:22:11;25.30;99.90
2459;DHT22;1241;50.920;6.936;2023-06-26T09:24:37;25.30;99.90
2459;DHT22;1241;50.920;6.936;2023-06-26T09:27:03;25.40;99.90
2459;DHT22;1241;50.920;6.936;2023-06-26T09:29:29;25.30;99.90
2459;DHT22;1241;50.920;6.936;2023-06-26T09:31:56;25.40;99.90
2459;DHT22;1241;50.920;6.936;2023-06-26T09:34:21;25.50;99.90
2459;DHT22;1241;50.920;6.936;2023-06-26T09:36:47;25.80;99.90
2459;DHT22;1241;50.920;6.936;2023-06-26T09:39:14;25.60;99.90
2459;DHT22;1241;50.920;6.936;2023-06-26T09:41:41;25.40;99.90
2459;DHT22;1241;50.920;6.936;2023-06-26T09:44:07;25.30;99.90
2459;DHT22;1241;50.920;6.936;2023-06-26T09:46:35;25.30;99.90
2459;DHT22;1241;50.920;6.936;2023-06-26T09:49:04;25.10;99.90
2459;DHT22;1241;50.920;6.936;2023-06-26T09:51:30;25.10;99.90
2459;DHT22;1241;50.920;6.936;2023-06-26T09:53:56;25.20;99.90
2459;DHT22;1241;50.920;6.936;2023-06-26T09:56:22;25.30;99.90
2459;DHT22;1241;50.920;6.936;2023-06-26T09:58:49;25.40;99.90
2459;DHT22;1241;50.920;6.936;2023-06-26T10:01:14;25.80;99.90
2459;DHT22;1241;50.920;6.936;2023-06-26T10:03:40;26.10;99.90
2459;DHT22;1241;50.920;6.936;2023-06-26T10:06:06;26.20;99.90
2459;DHT22;1241;50.920;6.936;2023-06-26T10:08:33;26.10;99.90
2459;DHT22;1241;50.920;6.936;2023-06-26T10:10:59;26.00;99.90
2459;DHT22;1241;50.920;6.936;2023-06-26T10:13:27;25.80;99.90
2459;DHT22;1241;50.920;6.936;2023-06-26T10:15:55;25.70;99.90
2459;DHT22;1241;50.920;6.936;2023-06-26T10:18:23;25.70;99.90
2459;DHT22;1241;50.920;6.936;2023-06-26T10:20:49;25.70;99.90
2459;DHT22;1241;50.920;6.936;2023-06-26T10:23:16;25.70;99.90
2459;DHT22;1241;50.920;6.936;2023-06-26T10:25:45;25.60;99.90
2459;DHT22;1241;50.920;6.936;2023-06-26T10:28:11;25.20;99.90
2459;DHT22;1241;50.920;6.936;2023-06-26T10:30:38;25.10;99.90
2459;DHT22;1241;50.920;6.936;2023-06-26T10:33:04;25.30;99.90
2459;DHT22;1241;50.920;6.936;2023-06-26T10:35:31;25.50;99.90
2459;DHT22;1241;50.920;6.936;2023-06-26T10:38:00;25.60;99.90
2459;DHT22;1241;50.920;6.936;2023-06-26T10:40:28;25.60;99.90
2459;DHT22;1241;50.920;6.936;2023-06-26T10:43:09;25.70;99.90
2459;DHT22;1241;50.920;6.936;2023-06-26T10:45:35;25.80;99.90
2459;DHT22;1241;50.920;6.936;2023-06-26T10:48:01;25.90;99.90
2459;DHT22;1241;50.920;6.936;2023-06-26T10:50:27;25.90;99.90
2459;DHT22;1241;50.920;6.936;2023-06-26T10:55:43;25.70;99.90
2459;DHT22;1241;50.920;6.936;2023-06-26T11:03:40;25.50;99.90
2459;DHT22;1241;50.920;6.936;2023-06-26T11:06:09;25.50;99.90
2459;DHT22;1241;50.920;6.936;2023-06-26T11:11:11;25.50;99.90
2459;DHT22;1241;50.920;6.936;2023-06-26T11:13:36;25.30;99.90
2459;DHT22;1241;50.920;6.936;2023-06-26T11:16:02;25.10;99.90
2459;DHT22;1241;50.920;6.936;2023-06-26T11:18:28;24.90;99.90
2459;DHT22;1241;50.920;6.936;2023-06-26T11:20:54;25.00;99.90
2459;DHT22;1241;50.920;6.936;2023-06-26T11:23:22;24.90;99.90
2459;DHT22;1241;50.920;6.936;2023-06-26T11:25:48;25.10;99.90
2459;DHT22;1241;50.920;6.936;2023-06-26T11:28:14;25.40;99.90
2459;DHT22;1241;50.920;6.936;2023-06-26T11:30:39;25.80;99.90
2459;DHT22;1241;50.920;6.936;2023-06-26T11:33:07;26.00;99.90
2459;DHT22;1241;50.920;6.936;2023-06-26T11:35:33;26.00;99.90
2459;DHT22;1241;50.920;6.936;2023-06-26T11:38:02;26.00;99.90
2459;DHT22;1241;50.920;6.936;2023-06-26T11:40:33;25.90;99.90
2459;DHT22;1241;50.920;6.936;2023-06-26T11:43:02;26.00;99.90
2459;DHT22;1241;50.920;6.936;2023-06-26T11:45:31;25.90;99.90
2459;DHT22;1241;50.920;6.936;2023-06-26T11:47:57;25.90;99.90
2459;DHT22;1241;50.920;6.936;2023-06-26T11:50:23;26.00;99.90
2459;DHT22;1241;50.920;6.936;2023-06-26T11:52:53;26.10;99.90
2459;DHT22;1241;50.920;6.936;2023-06-26T11:55:19;25.90;98.20
2459;DHT22;1241;50.920;6.936;2023-06-26T11:58:03;25.90;99.90
2459;DHT22;1241;50.920;6.936;2023-06-26T12:00:28;26.10;99.90
2459;DHT22;1241;50.920;6.936;2023-06-26T12:02:54;26.30;99.90
2459;DHT22;1241;50.920;6.936;2023-06-26T12:05:20;26.60;99.90
2459;DHT22;1241;50.920;6.936;2023-06-26T12:07:46;26.60;99.90
2459;DHT22;1241;50.920;6.936;2023-06-26T12:10:13;26.70;99.90
2459;DHT22;1241;50.920;6.936;2023-06-26T12:12:39;26.70;96.80
2459;DHT22;1241;50.920;6.936;2023-06-26T12:15:05;26.60;95.40
2459;DHT22;1241;50.920;6.936;2023-06-26T12:17:31;26.50;95.00
2459;DHT22;1241;50.920;6.936;2023-06-26T12:19:57;26.40;95.20
2459;DHT22;1241;50.920;6.936;2023-06-26T12:22:22;26.50;95.30
2459;DHT22;1241;50.920;6.936;2023-06-26T12:24:48;26.70;94.40
2459;DHT22;1241;50.920;6.936;2023-06-26T12:27:14;26.90;94.90
2459;DHT22;1241;50.920;6.936;2023-06-26T12:29:41;27.00;94.70
2459;DHT22;1241;50.920;6.936;2023-06-26T12:32:10;27.10;93.60
2459;DHT22;1241;50.920;6.936;2023-06-26T12:34:36;27.20;93.60
2459;DHT22;1241;50.920;6.936;2023-06-26T12:37:04;27.20;94.40
2459;DHT22;1241;50.920;6.936;2023-06-26T12:39:44;27.30;93.80
2459;DHT22;1241;50.920;6.936;2023-06-26T12:42:12;27.40;93.00
2459;DHT22;1241;50.920;6.936;2023-06-26T12:44:38;27.40;90.00
2459;DHT22;1241;50.920;6.936;2023-06-26T12:47:04;27.40;90.30
2459;DHT22;1241;50.920;6.936;2023-06-26T12:49:35;27.10;91.30
2459;DHT22;1241;50.920;6.936;2023-06-26T12:52:02;27.10;92.30
2459;DHT22;1241;50.920;6.936;2023-06-26T12:54:28;27.00;92.10
2459;DHT22;1241;50.920;6.936;2023-06-26T12:56:54;27.00;92.40
2459;DHT22;1241;50.920;6.936;2023-06-26T12:59:20;27.00;91.80
2459;DHT22;1241;50.920;6.936;2023-06-26T13:01:45;27.00;89.90
2459;DHT22;1241;50.920;6.936;2023-06-26T13:04:11;26.80;89.50
2459;DHT22;1241;50.920;6.936;2023-06-26T13:06:36;26.70;88.00
2459;DHT22;1241;50.920;6.936;2023-06-26T13:09:02;26.70;89.30
2459;DHT22;1241;50.920;6.936;2023-06-26T13:11:31;26.60;89.30
2459;DHT22;1241;50.920;6.936;2023-06-26T13:13:57;26.40;89.30
2459;DHT22;1241;50.920;6.936;2023-06-26T13:16:22;26.30;87.70
2459;DHT22;1241;50.920;6.936;2023-06-26T13:18:48;26.30;88.50
2459;DHT22;1241;50.920;6.936;2023-06-26T13:21:14;26.30;87.60
2459;DHT22;1241;50.920;6.936;2023-06-26T13:23:40;26.40;88.00
2459;DHT22;1241;50.920;6.936;2023-06-26T13:26:05;26.60;87.00
2459;DHT22;1241;50.920;6.936;2023-06-26T13:28:31;26.60;87.70
2459;DHT22;1241;50.920;6.936;2023-06-26T13:30:57;26.70;89.00
2459;DHT22;1241;50.920;6.936;2023-06-26T13:33:22;26.60;88.70
2459;DHT22;1241;50.920;6.936;2023-06-26T13:35:51;26.50;87.10
2459;DHT22;1241;50.920;6.936;2023-06-26T13:38:18;26.30;86.50
2459;DHT22;1241;50.920;6.936;2023-06-26T13:40:44;26.20;85.50
2459;DHT22;1241;50.920;6.936;2023-06-26T13:43:09;26.20;85.80
2459;DHT22;1241;50.920;6.936;2023-06-26T13:45:35;26.30;86.30
2459;DHT22;1241;50.920;6.936;2023-06-26T13:48:01;26.20;83.10
2459;DHT22;1241;50.920;6.936;2023-06-26T13:50:26;26.10;83.10
2459;DHT22;1241;50.920;6.936;2023-06-26T13:52:52;26.00;84.50
2459;DHT22;1241;50.920;6.936;2023-06-26T13:55:17;26.00;84.60
2459;DHT22;1241;50.920;6.936;2023-06-26T13:57:43;26.00;84.70
2459;DHT22;1241;50.920;6.936;2023-06-26T14:00:09;26.10;84.60
2459;DHT22;1241;50.920;6.936;2023-06-26T14:02:38;26.10;83.40
2459;DHT22;1241;50.920;6.936;2023-06-26T14:05:03;26.20;82.90
2459;DHT22;1241;50.920;6.936;2023-06-26T14:07:29;26.20;80.00
2459;DHT22;1241;50.920;6.936;2023-06-26T14:09:55;26.50;81.30
2459;DHT22;1241;50.920;6.936;2023-06-26T14:12:20;26.80;80.80
2459;DHT22;1241;50.920;6.936;2023-06-26T14:14:46;26.90;77.90
2459;DHT22;1241;50.920;6.936;2023-06-26T14:17:12;27.00;74.20
2459;DHT22;1241;50.920;6.936;2023-06-26T14:19:41;27.10;71.40
2459;DHT22;1241;50.920;6.936;2023-06-26T14:22:07;26.90;69.30
2459;DHT22;1241;50.920;6.936;2023-06-26T14:24:32;26.80;68.50
2459;DHT22;1241;50.920;6.936;2023-06-26T14:26:58;26.80;69.40
2459;DHT22;1241;50.920;6.936;2023-06-26T14:29:23;26.70;69.70
2459;DHT22;1241;50.920;6.936;2023-06-26T14:31:49;26.60;70.80
2459;DHT22;1241;50.920;6.936;2023-06-26T14:34:15;26.70;71.90
2459;DHT22;1241;50.920;6.936;2023-06-26T14:36:40;26.70;71.50
2459;DHT22;1241;50.920;6.936;2023-06-26T14:39:06;26.60;71.60
2459;DHT22;1241;50.920;6.936;2023-06-26T14:41:31;26.40;73.20
2459;DHT22;1241;50.920;6.936;2023-06-26T14:43:57;26.40;74.60
2459;DHT22;1241;50.920;6.936;2023-06-26T14:46:23;26.30;75.70
2459;DHT22;1241;50.920;6.936;2023-06-26T14:48:48;26.20;76.50
2459;DHT22;1241;50.920;6.936;2023-06-26T14:51:14;25.90;76.30
2459;DHT22;1241;50.920;6.936;2023-06-26T14:53:39;25.80;77.20
2459;DHT22;1241;50.920;6.936;2023-06-26T14:56:05;25.70;78.30
2459;DHT22;1241;50.920;6.936;2023-06-26T14:58:31;25.70;80.40
2459;DHT22;1241;50.920;6.936;2023-06-26T15:00:56;25.90;79.50
2459;DHT22;1241;50.920;6.936;2023-06-26T15:03:22;25.90;77.80
2459;DHT22;1241;50.920;6.936;2023-06-26T15:05:48;26.10;77.70
2459;DHT22;1241;50.920;6.936;2023-06-26T15:08:14;26.10;78.50
2459;DHT22;1241;50.920;6.936;2023-06-26T15:10:42;26.10;77.20
2459;DHT22;1241;50.920;6.936;2023-06-26T15:13:08;26.20;76.70
2459;DHT22;1241;50.920;6.936;2023-06-26T15:15:33;26.30;74.50
2459;DHT22;1241;50.920;6.936;2023-06-26T15:17:59;26.30;71.90
2459;DHT22;1241;50.920;6.936;2023-06-26T15:20:25;26.20;73.60
2459;DHT22;1241;50.920;6.936;2023-06-26T15:22:50;26.40;73.80
2459;DHT22;1241;50.920;6.936;2023-06-26T15:25:16;26.60;72.20
2459;DHT22;1241;50.920;6.936;2023-06-26T15:27:41;26.50;70.70
2459;DHT22;1241;50.920;6.936;2023-06-26T15:30:07;26.40;70.50
2459;DHT22;1241;50.920;6.936;2023-06-26T15:32:33;26.50;70.10
2459;DHT22;1241;50.920;6.936;2023-06-26T15:34:59;26.40;68.70
2459;DHT22;1241;50.920;6.936;2023-06-26T15:37:25;26.40;66.50
2459;DHT22;1241;50.920;6.936;2023-06-26T15:39:50;26.30;67.00
2459;DHT22;1241;50.920;6.936;2023-06-26T15:42:16;26.20;66.80
2459;DHT22;1241;50.920;6.936;2023-06-26T15:44:41;26.20;68.70
2459;DHT22;1241;50.920;6.936;2023-06-26T15:47:07;26.20;67.30
2459;DHT22;1241;50.920;6.936;2023-06-26T15:49:32;26.10;68.40
2459;DHT22;1241;50.920;6.936;2023-06-26T15:51:58;25.90;68.50
2459;DHT22;1241;50.920;6.936;2023-06-26T15:54:25;25.80;67.60
2459;DHT22;1241;50.920;6.936;2023-06-26T15:56:50;25.70;68.50
2459;DHT22;1241;50.920;6.936;2023-06-26T15:59:16;25.80;69.30
2459;DHT22;1241;50.920;6.936;2023-06-26T16:01:44;25.90;68.50
2459;DHT22;1241;50.920;6.936;2023-06-26T16:04:11;26.00;68.70
2459;DHT22;1241;50.920;6.936;2023-06-26T16:06:37;26.00;68.20
2459;DHT22;1241;50.920;6.936;2023-06-26T16:09:03;26.00;69.80